Main page
METAR-TAF:

METAR-TAF

Airports :

D15-fa-1, Netherlands

Oil platform

latitude: 54-19-32N, longitude: 2-56-09E, elevation: 36 m

Current weather observation

The report was made 23 minutes ago, at 08:55 UTC
Wind 14 kt from the West/Southwest, varying between South/Southwest and West/Northwest
Temperature 8°C
Humidity 100%
Pressure 1018 hPa
Visibility: 0900 m
drizzle

METAR: EHDV 290855Z AUTO 24014KT 200V290 0900 DZ VV000 08/08 Q1018

Time: 11:18 (09:18 UTC)


TAF: missing

Weather observations and forecasts of more than 4000 airports (METAR and TAF reports).

The available stations are represented by yellow and red dots on the map.

Hover mouse over dot to see the name of the station.

Then click to see weather observations and forecasts.

To change the map : click on the green buttons with a black cross to zoom in, on the green button with a dash to zoom out, or on the green arrows for adjacent maps.


METAR-TAF: